createdAt,value
2018-10-19T00:00:18.111Z,13.70
2018-10-19T00:02:46.324Z,11.50
2018-10-19T00:05:14.606Z,13.43
2018-10-19T00:07:42.788Z,14.30
2018-10-19T00:10:11.016Z,16.60
2018-10-19T00:12:39.232Z,14.00
2018-10-19T00:15:08.048Z,13.90
2018-10-19T00:17:36.325Z,14.10
2018-10-19T00:20:05.133Z,14.03
2018-10-19T00:22:33.390Z,14.60
2018-10-19T00:25:01.618Z,12.73
2018-10-19T00:27:29.842Z,13.17
2018-10-19T00:29:58.112Z,15.37
2018-10-19T00:32:26.310Z,14.93
2018-10-19T00:34:54.526Z,14.50
2018-10-19T00:37:22.766Z,18.77
2018-10-19T00:39:50.948Z,16.17
2018-10-19T00:42:19.172Z,14.00
2018-10-19T00:44:47.365Z,13.83
2018-10-19T00:47:15.681Z,15.07
2018-10-19T00:49:43.830Z,12.97
2018-10-19T00:52:12.095Z,12.80
2018-10-19T00:54:40.369Z,13.90
2018-10-19T00:57:08.666Z,14.50
2018-10-19T00:59:36.886Z,12.13
2018-10-19T01:02:05.227Z,13.13
2018-10-19T01:04:33.472Z,13.53
2018-10-19T01:07:01.765Z,12.30
2018-10-19T01:09:29.958Z,12.30
2018-10-19T01:11:58.360Z,13.10
2018-10-19T01:14:27.060Z,12.20
2018-10-19T01:16:55.631Z,11.47
2018-10-19T01:19:24.144Z,12.13
2018-10-19T01:21:52.571Z,13.93
2018-10-19T01:24:21.084Z,14.07
2018-10-19T01:26:49.920Z,14.87
2018-10-19T01:29:18.443Z,14.80
2018-10-19T01:31:46.787Z,13.37
2018-10-19T01:34:15.196Z,15.87
2018-10-19T01:36:45.192Z,14.50
2018-10-19T01:39:14.420Z,14.37
2018-10-19T01:41:43.601Z,15.97
2018-10-19T01:44:11.963Z,16.43
2018-10-19T01:46:45.967Z,13.83
2018-10-19T01:49:14.494Z,17.20
2018-10-19T01:51:44.307Z,15.83
2018-10-19T01:54:12.836Z,20.30
2018-10-19T01:56:41.372Z,18.00
2018-10-19T01:59:10.065Z,18.10
2018-10-19T02:01:38.588Z,17.63
2018-10-19T02:04:06.972Z,20.90
2018-10-19T02:06:35.257Z,22.63
2018-10-19T02:09:05.069Z,25.43
2018-10-19T02:11:33.395Z,20.13
2018-10-19T02:14:01.628Z,18.00
2018-10-19T02:16:29.957Z,20.87
2018-10-19T02:21:35.066Z,18.10
2018-10-19T02:24:03.401Z,19.60
2018-10-19T02:26:31.754Z,20.57
2018-10-19T02:29:00.226Z,16.50
2018-10-19T02:31:28.504Z,18.33
2018-10-19T02:33:56.985Z,19.27
2018-10-19T02:36:25.696Z,17.83
2018-10-19T02:38:54.654Z,18.43
2018-10-19T02:41:24.761Z,17.70
2018-10-19T02:43:54.774Z,18.47
2018-10-19T02:46:24.652Z,18.33
2018-10-19T02:48:55.338Z,16.07
2018-10-19T02:51:24.583Z,23.27
2018-10-19T02:53:54.551Z,15.03
2018-10-19T02:56:24.520Z,15.77
2018-10-19T02:58:54.429Z,19.13
2018-10-19T03:01:24.715Z,16.50
2018-10-19T03:03:54.598Z,15.07
2018-10-19T03:06:24.620Z,15.77
2018-10-19T03:08:55.213Z,13.40
2018-10-19T03:11:24.782Z,15.67
2018-10-19T03:13:54.634Z,14.63
2018-10-19T03:16:24.795Z,13.80
2018-10-19T03:18:54.598Z,13.93
2018-10-19T03:21:24.775Z,13.73
2018-10-19T03:23:54.647Z,16.57
2018-10-19T03:26:24.437Z,15.93
2018-10-19T03:28:54.700Z,14.20
2018-10-19T03:31:24.675Z,14.97
2018-10-19T03:33:55.037Z,12.97
2018-10-19T03:36:25.424Z,14.77
2018-10-19T03:38:56.657Z,14.93
2018-10-19T03:41:25.179Z,16.10
2018-10-19T03:43:54.394Z,14.50
2018-10-19T03:46:24.406Z,14.30
2018-10-19T03:48:54.541Z,13.97
2018-10-19T03:51:24.561Z,14.57
2018-10-19T03:53:54.634Z,14.87
2018-10-19T03:56:24.412Z,13.43
2018-10-19T03:58:54.988Z,13.30
2018-10-19T04:01:28.470Z,13.67
2018-10-19T04:03:56.955Z,15.47
2018-10-19T04:06:25.775Z,12.37
2018-10-19T04:08:56.708Z,14.67
2018-10-19T04:11:28.632Z,12.80
2018-10-19T04:13:57.499Z,13.47
2018-10-19T04:16:26.003Z,12.00
2018-10-19T04:18:54.926Z,11.50
2018-10-19T04:21:24.660Z,12.23
2018-10-19T04:23:55.333Z,14.13
2018-10-19T04:26:24.703Z,13.97
2018-10-19T04:28:54.843Z,12.10
2018-10-19T04:31:24.761Z,13.30
2018-10-19T04:33:54.676Z,14.00
2018-10-19T04:36:24.787Z,15.47
2018-10-19T04:38:54.835Z,12.63
2018-10-19T04:41:29.772Z,17.10
2018-10-19T04:43:58.200Z,15.03
2018-10-19T04:46:26.894Z,17.00
2018-10-19T04:48:56.104Z,15.23
2018-10-19T04:51:26.912Z,19.10
2018-10-19T04:53:55.688Z,14.33
2018-10-19T04:56:25.032Z,15.87
2018-10-19T04:58:54.873Z,14.13
2018-10-19T05:01:24.654Z,14.23
2018-10-19T05:03:54.576Z,13.23
2018-10-19T05:06:24.617Z,17.90
2018-10-19T05:08:55.008Z,15.73
2018-10-19T05:11:26.930Z,15.93
2018-10-19T05:13:55.923Z,12.87
2018-10-19T05:16:27.843Z,13.93
2018-10-19T05:18:56.355Z,20.47
2018-10-19T05:21:25.873Z,13.40
2018-10-19T05:23:54.996Z,17.97
2018-10-19T05:26:24.635Z,12.57
2018-10-19T05:28:55.045Z,13.07
2018-10-19T05:31:24.167Z,15.23
2018-10-19T05:36:56.872Z,13.17
2018-10-19T05:39:44.053Z,13.83
2018-10-19T05:42:12.684Z,18.03
2018-10-19T05:44:41.183Z,16.67
2018-10-19T05:51:46.138Z,24.63
2018-10-19T05:57:21.598Z,19.30
2018-10-19T05:59:50.305Z,20.83
2018-10-19T06:05:16.237Z,22.97
2018-10-19T06:19:49.923Z,26.37
2018-10-19T06:22:18.537Z,26.70
2018-10-19T06:24:50.606Z,30.47
2018-10-19T06:27:19.641Z,36.77
2018-10-19T06:30:10.073Z,39.53
2018-10-19T06:35:38.557Z,25.43
2018-10-19T06:41:16.480Z,31.60
2018-10-19T06:43:44.917Z,32.03
2018-10-19T06:46:13.298Z,31.27
2018-10-19T06:48:42.083Z,33.97
2018-10-19T06:51:10.779Z,32.50
2018-10-19T06:53:39.246Z,31.77
2018-10-19T06:56:09.979Z,26.63
2018-10-19T06:58:39.228Z,23.70
2018-10-19T07:01:08.139Z,27.30
2018-10-19T07:03:37.316Z,29.20
2018-10-19T07:06:22.215Z,26.67
2018-10-19T07:08:52.064Z,27.00
2018-10-19T07:11:20.951Z,27.80
2018-10-19T07:13:49.536Z,23.73
2018-10-19T07:16:18.257Z,21.77
2018-10-19T07:21:48.721Z,19.60
2018-10-19T07:24:17.394Z,15.90
2018-10-19T07:26:45.899Z,16.33
2018-10-19T07:29:17.656Z,18.13
2018-10-19T07:31:46.663Z,16.53
2018-10-19T07:34:15.312Z,18.33
2018-10-19T07:36:44.373Z,18.33
2018-10-19T07:39:12.953Z,19.03
2018-10-19T07:41:41.599Z,17.27
2018-10-19T07:44:10.319Z,16.33
2018-10-19T07:46:42.324Z,17.93
2018-10-19T07:49:17.886Z,20.60
2018-10-19T07:51:46.910Z,21.90
2018-10-19T07:54:16.927Z,25.23
2018-10-19T07:56:45.563Z,23.20
2018-10-19T07:59:14.154Z,24.10
2018-10-19T08:01:55.468Z,23.20
2018-10-19T08:04:23.964Z,25.60
2018-10-19T08:07:08.393Z,28.23
2018-10-19T08:09:37.897Z,23.47
2018-10-19T08:12:11.981Z,26.83
2018-10-19T08:14:42.044Z,23.03
2018-10-19T08:18:13.169Z,28.60
2018-10-19T08:20:56.970Z,25.23
2018-10-19T08:23:25.638Z,26.23
2018-10-19T08:25:54.298Z,25.93
2018-10-19T08:28:23.063Z,24.40
2018-10-19T08:30:54.121Z,22.33
2018-10-19T08:33:25.372Z,19.80
2018-10-19T08:35:54.191Z,20.70
2018-10-19T08:38:22.999Z,18.77
2018-10-19T08:40:51.898Z,22.80
2018-10-19T08:43:20.640Z,22.13
2018-10-19T08:45:49.765Z,22.57
2018-10-19T08:51:02.309Z,21.93
2018-10-19T08:53:42.441Z,23.83
2018-10-19T08:58:47.502Z,22.77
2018-10-19T09:01:16.608Z,21.80
2018-10-19T09:03:45.957Z,24.03
2018-10-19T09:06:14.838Z,26.30
2018-10-19T09:08:43.906Z,25.10
2018-10-19T09:11:12.411Z,29.43
2018-10-19T09:13:46.131Z,32.30
2018-10-19T09:16:14.808Z,30.00
2018-10-19T09:18:43.433Z,30.63
2018-10-19T09:21:12.313Z,27.33
2018-10-19T09:23:40.685Z,27.23
2018-10-19T09:26:09.122Z,25.50
2018-10-19T09:28:37.782Z,26.13
2018-10-19T09:31:06.780Z,31.80
2018-10-19T09:33:37.056Z,28.30
2018-10-19T09:36:06.026Z,27.73
2018-10-19T09:38:36.604Z,25.47
2018-10-19T09:41:05.922Z,25.57
2018-10-19T09:43:34.567Z,28.00
2018-10-19T09:46:04.447Z,26.83
2018-10-19T09:48:37.416Z,27.27
2018-10-19T09:51:11.466Z,26.10
2018-10-19T09:53:40.122Z,24.90
2018-10-19T09:56:08.775Z,26.43
2018-10-19T09:58:37.091Z,24.03
2018-10-19T10:01:10.915Z,26.77
2018-10-19T10:03:39.423Z,27.50
2018-10-19T10:06:07.967Z,26.30
2018-10-19T10:08:36.418Z,26.80
2018-10-19T10:11:05.249Z,26.50
2018-10-19T10:13:35.451Z,24.43
2018-10-19T10:16:03.872Z,24.50
2018-10-19T10:18:32.146Z,27.07
2018-10-19T10:21:00.403Z,26.97
2018-10-19T10:23:28.633Z,26.70
2018-10-19T10:25:56.880Z,26.23
2018-10-19T10:28:25.115Z,26.93
2018-10-19T10:30:53.342Z,28.53
2018-10-19T10:33:21.530Z,27.63
2018-10-19T10:35:49.694Z,25.67
2018-10-19T10:38:17.924Z,27.97
2018-10-19T10:40:46.191Z,24.37
2018-10-19T10:43:14.439Z,26.02
2018-10-19T10:45:42.578Z,25.03
2018-10-19T10:48:10.791Z,27.02
2018-10-19T10:50:39.090Z,25.92
2018-10-19T10:53:07.423Z,23.17
2018-10-19T10:55:35.933Z,24.20
2018-10-19T10:58:04.196Z,25.10
2018-10-19T11:00:32.390Z,24.63
2018-10-19T11:03:00.584Z,26.30
2018-10-19T11:05:28.793Z,23.57
2018-10-19T11:07:57.026Z,23.77
2018-10-19T11:10:25.262Z,23.10
2018-10-19T11:12:53.551Z,29.35
2018-10-19T11:15:21.971Z,25.33
2018-10-19T11:17:50.275Z,23.17
2018-10-19T11:20:18.629Z,23.37
2018-10-19T11:22:46.898Z,22.37
2018-10-19T11:25:15.135Z,24.40
2018-10-19T11:27:43.474Z,23.67
2018-10-19T11:30:11.785Z,21.73
2018-10-19T11:32:40.092Z,26.00
2018-10-19T11:35:08.688Z,24.30
2018-10-19T11:37:36.958Z,26.33
2018-10-19T11:40:26.895Z,22.60
2018-10-19T11:42:55.973Z,22.85
2018-10-19T11:45:25.652Z,20.85
2018-10-19T11:47:54.002Z,23.57
2018-10-19T11:50:22.279Z,22.07
2018-10-19T11:52:50.790Z,24.50
2018-10-19T11:55:19.083Z,24.00
2018-10-19T11:57:48.230Z,21.70
2018-10-19T12:00:16.583Z,22.10
2018-10-19T12:02:44.910Z,23.15
2018-10-19T12:05:13.337Z,22.30
2018-10-19T12:07:41.635Z,19.60
2018-10-19T12:10:10.951Z,22.80
2018-10-19T12:12:39.767Z,25.00
2018-10-19T12:15:09.600Z,19.32
2018-10-19T12:17:38.223Z,23.02
2018-10-19T12:20:08.220Z,23.00
2018-10-19T12:22:36.447Z,22.58
2018-10-19T12:25:05.782Z,24.05
2018-10-19T12:27:33.874Z,22.95
2018-10-19T12:30:02.129Z,22.77
2018-10-19T12:32:30.323Z,20.35
2018-10-19T12:34:58.575Z,23.38
2018-10-19T12:37:26.807Z,21.10
2018-10-19T12:39:55.050Z,24.98
2018-10-19T12:46:29.000Z,27.90
2018-10-19T12:48:57.314Z,20.72
2018-10-19T12:51:25.531Z,23.60
2018-10-19T12:53:54.846Z,23.55
2018-10-19T12:56:23.546Z,20.50
2018-10-19T12:58:52.679Z,22.42
2018-10-19T13:01:21.635Z,21.48
2018-10-19T13:03:49.857Z,21.70
2018-10-19T13:06:18.051Z,21.23
2018-10-19T13:08:46.251Z,22.82
2018-10-19T13:11:14.429Z,21.60
2018-10-19T13:13:42.632Z,19.70
2018-10-19T13:16:10.908Z,19.87
2018-10-19T13:18:39.054Z,19.67
2018-10-19T13:21:07.549Z,22.32
2018-10-19T13:23:36.879Z,19.65
2018-10-19T13:26:05.150Z,20.70
2018-10-19T13:28:33.421Z,20.48
2018-10-19T13:31:01.678Z,20.97
2018-10-19T13:33:29.881Z,19.67
2018-10-19T13:35:58.185Z,20.55
2018-10-19T13:38:26.377Z,19.45
2018-10-19T13:40:55.258Z,21.40
2018-10-19T13:43:23.849Z,18.55
2018-10-19T13:45:52.505Z,20.60
2018-10-19T13:48:21.306Z,22.45
2018-10-19T13:50:49.547Z,24.02
2018-10-19T13:53:17.798Z,19.73
2018-10-19T13:55:45.990Z,19.32
2018-10-19T13:58:14.360Z,19.95
2018-10-19T14:00:42.486Z,20.00
2018-10-19T14:03:10.728Z,22.22
2018-10-19T14:05:39.092Z,18.92
2018-10-19T14:08:07.167Z,20.05
2018-10-19T14:10:35.379Z,24.25
2018-10-19T14:13:03.600Z,20.27
2018-10-19T14:15:31.777Z,21.20
2018-10-19T14:17:59.994Z,22.73
2018-10-19T14:20:28.227Z,21.97
2018-10-19T14:22:56.501Z,28.73
2018-10-19T14:25:24.721Z,22.50
2018-10-19T14:27:52.951Z,23.32
2018-10-19T14:30:21.158Z,26.47
2018-10-19T14:32:49.394Z,23.10
2018-10-19T14:35:17.583Z,30.05
2018-10-19T14:37:46.431Z,29.27
2018-10-19T14:40:16.965Z,25.23
2018-10-19T14:42:45.629Z,24.83
2018-10-19T14:45:14.753Z,28.90
2018-10-19T14:47:43.618Z,26.37
2018-10-19T14:50:13.699Z,26.10
2018-10-19T14:52:41.871Z,26.13
2018-10-19T14:55:12.539Z,27.87
2018-10-19T14:57:40.876Z,29.20
2018-10-19T15:00:11.641Z,28.27
2018-10-19T15:02:39.899Z,28.43
2018-10-19T15:05:09.527Z,27.60
2018-10-19T15:07:38.043Z,26.47
2018-10-19T15:10:09.521Z,28.77
2018-10-19T15:12:37.749Z,33.13
2018-10-19T15:15:06.135Z,25.43
2018-10-19T15:17:34.315Z,29.77
2018-10-19T15:20:02.899Z,30.63
2018-10-19T15:22:31.183Z,26.00
2018-10-19T15:24:59.644Z,28.73
2018-10-19T15:27:28.046Z,27.53
2018-10-19T15:29:56.419Z,31.10
2018-10-19T15:32:24.644Z,31.23
2018-10-19T15:34:53.080Z,29.53
2018-10-19T15:37:21.324Z,29.20
2018-10-19T15:39:50.527Z,29.30
2018-10-19T15:42:18.716Z,28.23
2018-10-19T15:44:46.877Z,25.73
2018-10-19T15:47:15.202Z,24.67
2018-10-19T15:49:43.438Z,26.23
2018-10-19T15:52:11.684Z,26.77
2018-10-19T15:54:39.906Z,27.33
2018-10-19T15:57:08.091Z,29.33
2018-10-19T15:59:36.294Z,27.27
2018-10-19T16:02:04.713Z,28.83
2018-10-19T16:04:32.898Z,28.33
2018-10-19T16:07:07.883Z,26.60
2018-10-19T16:09:36.115Z,27.67
2018-10-19T16:12:04.391Z,27.17
2018-10-19T16:14:32.548Z,23.20
2018-10-19T16:17:00.784Z,26.40
2018-10-19T16:19:28.999Z,26.40
2018-10-19T16:21:57.212Z,23.67
2018-10-19T16:24:25.459Z,27.53
2018-10-19T16:26:53.669Z,31.70
2018-10-19T16:29:21.901Z,25.27
2018-10-19T16:31:50.128Z,27.10
2018-10-19T16:34:18.317Z,22.07
2018-10-19T16:36:46.522Z,22.13
2018-10-19T16:39:14.800Z,25.17
2018-10-19T16:41:42.988Z,26.47
2018-10-19T16:44:11.247Z,23.13
2018-10-19T16:46:39.463Z,21.90
2018-10-19T16:49:07.710Z,20.73
2018-10-19T16:51:35.940Z,24.10
2018-10-19T16:54:04.447Z,23.03
2018-10-19T16:56:32.575Z,21.67
2018-10-19T16:59:06.874Z,21.20
2018-10-19T17:01:35.541Z,22.87
2018-10-19T17:04:09.502Z,23.97
2018-10-19T17:06:38.622Z,22.07
2018-10-19T17:09:11.948Z,22.50
2018-10-19T17:11:41.430Z,19.27
2018-10-19T17:14:21.224Z,22.37
2018-10-19T17:16:52.617Z,22.70
2018-10-19T17:19:21.667Z,25.67
2018-10-19T17:24:42.991Z,22.83
2018-10-19T17:27:13.878Z,25.83
2018-10-19T17:29:44.035Z,24.13
2018-10-19T17:32:14.121Z,26.57
2018-10-19T17:34:54.888Z,27.57
2018-10-19T17:37:25.138Z,24.00
2018-10-19T17:39:54.584Z,27.93
2018-10-19T17:42:23.354Z,30.70
2018-10-19T17:44:52.073Z,27.67
2018-10-19T17:47:21.283Z,27.20
2018-10-19T17:49:50.407Z,25.60
2018-10-19T17:52:25.172Z,27.17
2018-10-19T17:55:49.692Z,26.63
2018-10-19T17:58:18.838Z,26.40
2018-10-19T18:00:51.702Z,26.60
2018-10-19T18:03:20.344Z,24.13
2018-10-19T18:05:50.606Z,23.23
2018-10-19T18:08:19.352Z,20.73
2018-10-19T18:13:39.837Z,24.70
2018-10-19T18:16:11.763Z,25.47
2018-10-19T18:18:40.864Z,22.33
2018-10-19T18:21:17.580Z,24.43
2018-10-19T18:23:46.024Z,27.20
2018-10-19T18:26:14.655Z,22.80
2018-10-19T18:28:43.318Z,23.10
2018-10-19T18:31:12.043Z,27.60
2018-10-19T18:33:40.686Z,22.27
2018-10-19T18:36:09.577Z,21.47
2018-10-19T18:38:38.452Z,23.87
2018-10-19T18:41:08.262Z,28.23
2018-10-19T18:43:39.490Z,27.87
2018-10-19T18:46:08.641Z,26.17
2018-10-19T18:48:39.344Z,28.07
2018-10-19T18:51:11.667Z,25.97
2018-10-19T18:53:40.564Z,25.80
2018-10-19T18:56:10.614Z,27.23
2018-10-19T18:58:39.795Z,26.70
2018-10-19T19:01:08.841Z,24.40
2018-10-19T19:03:38.925Z,28.60
2018-10-19T19:06:12.569Z,26.40
2018-10-19T19:11:22.043Z,26.10
2018-10-19T19:13:51.898Z,23.53
2018-10-19T19:16:26.566Z,23.60
2018-10-19T19:18:56.625Z,26.83
2018-10-19T19:21:50.772Z,26.40
2018-10-19T19:24:27.597Z,24.93
2018-10-19T19:26:56.217Z,26.33
2018-10-19T19:29:24.780Z,25.73
2018-10-19T19:31:53.712Z,23.97
2018-10-19T19:34:27.870Z,26.57
2018-10-19T19:36:56.565Z,25.17
2018-10-19T19:39:25.427Z,24.93
2018-10-19T19:41:59.337Z,29.80
2018-10-19T19:44:28.162Z,30.73
2018-10-19T19:46:57.129Z,32.87
2018-10-19T19:49:31.147Z,33.47
2018-10-19T19:52:00.132Z,35.87
2018-10-19T19:54:28.949Z,31.47
2018-10-19T19:56:57.642Z,26.90
2018-10-19T19:59:34.049Z,28.33
2018-10-19T20:02:09.107Z,34.27
2018-10-19T20:04:38.311Z,31.53
2018-10-19T20:07:09.396Z,36.97
2018-10-19T20:09:40.786Z,32.93
2018-10-19T20:12:15.865Z,36.57
2018-10-19T20:14:45.724Z,32.63
2018-10-19T20:17:14.463Z,35.57
2018-10-19T20:19:43.110Z,30.80
2018-10-19T20:22:19.793Z,33.63
2018-10-19T20:24:48.919Z,30.70
2018-10-19T20:27:17.393Z,27.03
2018-10-19T20:29:46.183Z,31.37
2018-10-19T20:35:31.296Z,30.53
2018-10-19T20:38:11.087Z,29.83
2018-10-19T20:40:48.309Z,35.43
2018-10-19T20:43:16.883Z,32.13
2018-10-19T20:45:47.145Z,32.30
2018-10-19T20:48:39.369Z,33.37
2018-10-19T20:51:09.858Z,31.23
2018-10-19T20:53:39.097Z,33.30
2018-10-19T20:56:09.723Z,36.23
2018-10-19T20:58:40.427Z,29.63
2018-10-19T21:01:10.669Z,33.03
2018-10-19T21:03:40.509Z,28.73
2018-10-19T21:06:09.844Z,31.07
2018-10-19T21:08:39.442Z,31.40
2018-10-19T21:11:09.496Z,31.50
2018-10-19T21:13:44.714Z,28.40
2018-10-19T21:16:13.341Z,39.23
2018-10-19T21:18:42.011Z,32.10
2018-10-19T21:21:11.413Z,33.50
2018-10-19T21:23:40.139Z,30.17
2018-10-19T21:26:09.456Z,34.27
2018-10-19T21:28:42.925Z,30.80
2018-10-19T21:31:11.527Z,28.93
2018-10-19T21:33:41.290Z,30.53
2018-10-19T21:36:10.079Z,29.73
2018-10-19T21:38:38.899Z,33.60
2018-10-19T21:41:08.294Z,34.77
2018-10-19T21:43:39.165Z,30.00
2018-10-19T21:46:08.461Z,32.57
2018-10-19T21:48:39.714Z,29.23
2018-10-19T21:51:09.576Z,29.73
2018-10-19T21:53:38.517Z,35.20
2018-10-19T21:56:08.771Z,28.57
2018-10-19T21:58:38.945Z,28.60
2018-10-19T22:01:09.191Z,34.43
2018-10-19T22:03:39.531Z,28.30
2018-10-19T22:06:08.442Z,29.50
2018-10-19T22:08:38.640Z,28.43
2018-10-19T22:11:08.300Z,27.60
2018-10-19T22:13:38.284Z,33.50
2018-10-19T22:16:10.910Z,30.40
2018-10-19T22:18:39.732Z,32.23
2018-10-19T22:21:09.020Z,32.43
2018-10-19T22:23:41.340Z,30.17
2018-10-19T22:26:10.136Z,31.17
2018-10-19T22:28:38.785Z,29.90
2018-10-19T22:31:13.329Z,34.80
2018-10-19T22:33:42.154Z,28.30
2018-10-19T22:36:10.955Z,31.07
2018-10-19T22:38:39.561Z,31.37
2018-10-19T22:41:14.100Z,31.57
2018-10-19T22:43:43.792Z,29.07
2018-10-19T22:46:12.471Z,30.10
2018-10-19T22:48:48.232Z,27.97
2018-10-19T22:54:16.721Z,28.93
2018-10-19T22:56:45.491Z,28.47
2018-10-19T22:59:16.710Z,28.10
2018-10-19T23:01:44.997Z,27.17
2018-10-19T23:04:13.348Z,27.77
2018-10-19T23:06:41.712Z,23.17
2018-10-19T23:09:10.388Z,28.20
2018-10-19T23:11:38.707Z,28.40
2018-10-19T23:14:07.253Z,24.40
2018-10-19T23:16:35.641Z,26.27
2018-10-19T23:19:04.248Z,26.60
2018-10-19T23:21:32.571Z,25.53
2018-10-19T23:24:01.009Z,21.63
2018-10-19T23:26:29.272Z,26.00
2018-10-19T23:28:57.563Z,26.10
2018-10-19T23:31:25.962Z,27.83
2018-10-19T23:33:54.191Z,26.00
2018-10-19T23:36:22.770Z,26.43
2018-10-19T23:38:51.054Z,25.67
2018-10-19T23:41:19.355Z,21.60
2018-10-19T23:43:47.783Z,22.70
2018-10-19T23:46:16.038Z,27.00
2018-10-19T23:48:44.389Z,22.87
2018-10-19T23:51:12.697Z,25.47
2018-10-19T23:53:41.027Z,26.00
2018-10-19T23:56:09.348Z,23.90
2018-10-19T23:58:37.694Z,26.87
